• Join FlightAware (Why Join?)
  • Login
  • US Flag 
03:19PM EST


 

Airport Tracker/Info


-or-


 

Live Flight TrackerFlight Track Log ✈ N5167L ✈ 11-Aug-2013 ✈ KHRO - KCPS

Flight Track Log - Related Links

Times and Time Zones

All times are in EDT time to prevent confusion due to time zone crossing. See the N5167L flight status page for this flight to view local times or setup timezone preferences in your user account.

Time Position Orientation Groundspeed Altitude Reporting Facility
EDT Latitude Longitude Course Direction KTS MPH feet Rate Location/Type
10:10AM 36.2425 -93.1283 39° Northeast 90 104 7,000  Level Memphis Center
10:11AM 36.2328 -93.1025 115° Southeast 90 104 7,000  Level Memphis Center
10:12AM 36.4061 -92.9940 39° Northeast  Level FlightAware Approximate
10:12AM 36.2228 -93.0764 115° Southeast 90 104 7,000  Level Memphis Center
10:13AM 36.2131 -93.0503 115° Southeast 90 104 7,000  Level Memphis Center
10:14AM 36.3842 -93.0353 North 90 104 7,000  Level Memphis Center
10:15AM 36.3886 -93.0303 42° Northeast 90 104 7,000  Level Memphis Center
10:16AM 36.4100 -93.0053 43° Northeast 90 104 7,000  Level Memphis Center
10:17AM 36.4314 -92.9800 44° Northeast 90 104 7,000 -780 Level Memphis Center
10:18AM 36.4189 -92.9894 211° Southwest 115 132 5,600 -540 Descending Kansas City Center
10:19AM 36.4428 -92.9675 36° Northeast 110 127 6,100 420 Climbing Kansas City Center
10:20AM 36.4675 -92.9453 36° Northeast 110 127 6,500 360 Climbing Kansas City Center
10:21AM 36.4919 -92.9206 39° Northeast 111 128 6,900 240 Climbing Kansas City Center
10:22AM 36.5172 -92.8822 51° Northeast 116 133 7,100 60 Climbing Kansas City Center
10:23AM 36.5444 -92.8469 46° Northeast 113 130 7,100 -60 Level Memphis Center
10:24AM 36.5764 -92.8219 32° Northeast 119 137 7,000 -120 Descending Memphis Center
10:26AM 36.6278 -92.7678 40° Northeast 124 143 6,900 -60 Descending Kansas City Center
10:28AM 36.6475 -92.7317 56° Northeast 122 140 6,900  Level Kansas City Center
10:29AM 36.6642 -92.6936 61° Northeast 122 140 7,000 60 Climbing Kansas City Center
10:30AM 36.6786 -92.6533 66° East 123 142 7,100 180 Climbing Kansas City Center
10:31AM 36.6978 -92.6183 56° Northeast 123 142 7,400 300 Climbing Kansas City Center
10:32AM 36.7225 -92.5967 35° Northeast 115 132 7,800 360 Climbing Kansas City Center
10:33AM 36.7528 -92.5686 37° Northeast 112 129 8,200 300 Climbing Kansas City Center
10:34AM 36.7786 -92.5431 38° Northeast 116 133 8,500 300 Climbing Kansas City Center
10:35AM 36.8050 -92.5194 36° Northeast 116 133 8,900 240 Climbing Kansas City Center
10:36AM 36.8336 -92.4986 30° Northeast 118 136 9,000  Climbing Kansas City Center
10:37AM 36.8622 -92.4725 36° Northeast 124 143 9,000  Level Kansas City Center
10:38AM 36.8911 -92.4431 39° Northeast 130 150 9,000  Level Kansas City Center
10:39AM 36.9208 -92.4175 35° Northeast 130 150 9,100  Climbing Kansas City Center
10:40AM 36.9514 -92.3900 36° Northeast 132 152 9,000 -60 Descending Kansas City Center
10:41AM 36.9886 -92.3536 38° Northeast 136 157 9,000  Level Kansas City Center
10:42AM 37.0161 -92.3228 42° Northeast 135 155 9,000  Level Kansas City Center
10:43AM 37.0439 -92.2947 39° Northeast 132 152 9,000  Level Kansas City Center
10:44AM 37.0753 -92.2714 31° Northeast 132 152 9,000  Level Kansas City Center
10:45AM 37.1053 -92.2458 34° Northeast 131 151 9,000  Level Kansas City Center
10:46AM 37.1353 -92.2186 36° Northeast 131 151 9,000  Level Kansas City Center
10:47AM 37.1653 -92.1900 37° Northeast 133 153 9,100  Climbing Kansas City Center
10:48AM 37.1986 -92.1539 41° Northeast 132 152 9,000 -60 Descending Kansas City Center
10:49AM 37.2281 -92.1275 36° Northeast 132 152 9,000  Level Kansas City Center
10:50AM 37.2575 -92.1000 37° Northeast 132 152 9,000  Level Kansas City Center
10:51AM 37.2861 -92.0706 39° Northeast 132 152 9,000  Level Kansas City Center
10:52AM 37.3144 -92.0419 39° Northeast 131 151 9,000  Level Kansas City Center
10:53AM 37.3417 -92.0125 41° Northeast 129 148 9,000  Level Kansas City Center
10:54AM 37.3764 -91.9806 36° Northeast 129 148 9,000  Level Kansas City Center
10:55AM 37.4072 -91.9553 33° Northeast 131 151 9,000  Level Kansas City Center
10:56AM 37.4375 -91.9306 33° Northeast 130 150 9,000  Level Kansas City Center
10:57AM 37.4672 -91.9053 34° Northeast 130 150 9,000  Level Kansas City Center
10:58AM 37.4956 -91.8789 36° Northeast 128 147 9,000  Level Kansas City Center
10:59AM 37.5250 -91.8517 36° Northeast 130 150 9,000  Level Kansas City Center
11:01AM 37.5525 -91.8233 39° Northeast 129 148 9,000  Level Kansas City Center
11:02AM 37.5869 -91.7906 37° Northeast 129 148 9,000  Level Kansas City Center
11:03AM 37.6103 -91.7572 49° Northeast 128 147 9,000  Level Kansas City Center
11:04AM 37.6317 -91.7217 53° Northeast 128 147 9,000  Level Kansas City Center
11:05AM 37.6542 -91.6881 50° Northeast 126 145 9,000  Level Kansas City Center
11:06AM 37.6767 -91.6542 50° Northeast 126 145 9,000  Level Kansas City Center
11:07AM 37.6967 -91.6178 55° Northeast 126 145 9,000  Level Kansas City Center
11:08AM 37.7233 -91.5758 51° Northeast 127 146 9,000  Level Kansas City Center
11:09AM 37.7458 -91.5428 49° Northeast 126 145 9,000  Level Kansas City Center
11:10AM 37.7683 -91.5089 50° Northeast 125 144 9,000  Level Kansas City Center
11:11AM 37.7889 -91.4739 53° Northeast 125 144 9,000  Level Kansas City Center
11:12AM 37.8111 -91.4400 50° Northeast 124 143 9,000  Level Kansas City Center
11:13AM 37.8325 -91.4053 52° Northeast 125 144 9,000  Level Kansas City Center
11:14AM 37.8594 -91.3647 50° Northeast 126 145 9,000  Level Kansas City Center
11:15AM 37.8803 -91.3300 53° Northeast 124 143 9,000  Level Kansas City Center
11:16AM 37.9031 -91.2953 50° Northeast 126 145 9,000  Level Kansas City Center
11:17AM 37.9236 -91.2600 54° Northeast 125 144 9,000  Level Kansas City Center
11:18AM 37.9458 -91.2261 50° Northeast 125 144 9,000  Level Kansas City Center
11:19AM 37.9650 -91.1914 55° Northeast 122 140 9,000  Level Kansas City Center
11:20AM 37.9847 -91.1556 55° Northeast 122 140 9,000  Level Kansas City Center
11:21AM 38.0111 -91.1169 49° Northeast 120 138 9,000  Level Kansas City Center
11:22AM 38.0336 -91.0856 48° Northeast 120 138 9,000  Level Kansas City Center
11:23AM 38.0519 -91.0544 53° Northeast 123 142 9,000  Level Kansas City Center
11:24AM 38.0758 -91.0139 53° Northeast 121 139 9,000  Level Kansas City Center
11:25AM 38.0972 -90.9806 51° Northeast 121 139 9,000  Level Kansas City Center
11:26AM 38.1183 -90.9486 50° Northeast 120 138 9,000  Level Kansas City Center
11:27AM 38.1386 -90.9158 52° Northeast 118 136 9,000  Level Kansas City Center
11:28AM 38.1581 -90.8833 53° Northeast 117 135 9,000 -60 Level Kansas City Center
11:29AM 38.1761 -90.8511 55° Northeast 113 130 8,900 -420 Descending Kansas City Center
11:31AM 38.2031 -90.8083 51° Northeast 125 144 8,200 -780 Descending Kansas City Center
11:32AM 38.2272 -90.7711 50° Northeast 133 153 7,400 -840 Descending Kansas City Center
11:33AM 38.2506 -90.7336 52° Northeast 135 155 6,500 -780 Descending Kansas City Center
11:34AM 38.2722 -90.6939 55° Northeast 136 157 5,800 -600 Descending Kansas City Center
11:35AM 38.2939 -90.6592 52° Northeast 130 150 5,300 -660 Descending Kansas City Center
11:36AM 38.3192 -90.6164 53° Northeast 127 146 4,500 -600 Descending Kansas City Center
11:37AM 38.3408 -90.5811 52° Northeast 126 145 4,100 -300 Descending Kansas City Center
11:38AM 38.3619 -90.5456 53° Northeast 126 145 4,000 -60 Descending Kansas City Center
11:39AM 38.3825 -90.5128 51° Northeast 124 143 4,000  Level Kansas City Center
11:40AM 38.4028 -90.4800 52° Northeast 120 138 4,000  Level Kansas City Center
11:41AM 38.4217 -90.4464 54° Northeast 119 137 4,000 -180 Level Kansas City Center
11:42AM 38.4447 -90.4044 55° Northeast 119 137 3,700 -240 Descending Kansas City Center
11:43AM 38.4639 -90.3689 55° Northeast 121 139 3,500 -360 Descending Kansas City Center
11:44AM 38.4806 -90.3339 59° Northeast 119 137 3,000 -480 Descending Kansas City Center
11:45AM 38.5000 -90.2997 54° Northeast 119 137 2,600 -360 Descending Kansas City Center
11:46AM 38.5242 -90.2725 41° Northeast 117 135 2,300 -420 Descending Kansas City Center
11:47AM 38.5553 -90.2431 37° Northeast 116 133 1,800 -540 Descending Kansas City Center
11:48AM 38.5789 -90.2167 41° Northeast 115 132 1,200 -480 Descending Kansas City Center
11:49AM 38.5847 -90.1853 77° East 122 140 800 -360 Descending Kansas City Center
11:50AM 38.5731 -90.1611 122° Southeast 96 110 500 -300 Descending Kansas City Center
11:52AM 38.5667 -90.1500 57° Northeast  Level FlightAware Approximate
11:59AM 38.5704 -90.1551 57° Northeast  Level Estimated
12:00PM 38.5667 -90.1500 57° Northeast  Level FlightAware Approximate
12:01PM 38.5704 -90.1551 57° Northeast  Level Estimated